Time;durP1;ratioP1;P1;durP2;ratioP2;P2;SDS_P1;SDS_P2;PMS_P1;PMS_P2;Temp;Humidity;BMP_temperature;BMP_pressure;BME280_temperature;BME280_humidity;BME280_pressure;Samples;Min_cycle;Max_cycle;Signal;HPM_P1;HPM_P2
2021/05/07 00:02:22;;;;;;;11.57;8.90;;;;;;;6.60;71.81;99439.16;5014121;28;20057;-60
2021/05/07 00:04:48;;;;;;;14.23;9.43;;;;;;;6.52;71.93;99437.13;5014353;28;20133;-61
2021/05/07 00:07:16;;;;;;;13.60;9.90;;;;;;;6.43;71.42;99428.78;5014232;28;20053;-61
2021/05/07 00:09:42;;;;;;;16.30;11.23;;;;;;;6.36;71.25;99444.97;5014403;28;20057;-60
2021/05/07 00:12:09;;;;;;;14.98;10.77;;;;;;;6.30;71.95;99436.78;5014142;28;20054;-60
2021/05/07 00:14:36;;;;;;;16.23;11.20;;;;;;;6.28;72.15;99438.25;5014172;28;20080;-59
2021/05/07 00:17:04;;;;;;;16.02;12.25;;;;;;;6.21;72.05;99435.88;5013697;28;20065;-61
2021/05/07 00:19:31;;;;;;;15.70;11.52;;;;;;;6.15;71.91;99444.59;5014218;28;20050;-60
2021/05/07 00:21:58;;;;;;;17.10;13.10;;;;;;;6.06;72.40;99448.09;5014111;28;20057;-61
2021/05/07 00:24:24;;;;;;;18.67;13.18;;;;;;;6.06;73.02;99448.09;5013300;28;20050;-60
2021/05/07 00:26:51;;;;;;;17.08;12.18;;;;;;;6.00;73.03;99449.31;5013497;28;20062;-60
2021/05/07 00:29:18;;;;;;;17.80;11.77;;;;;;;5.95;72.92;99452.22;5013809;28;20045;-60
2021/05/07 00:31:45;;;;;;;17.67;13.30;;;;;;;5.86;73.01;99449.31;5014020;28;20050;-60
2021/05/07 00:34:13;;;;;;;18.33;13.50;;;;;;;5.82;73.39;99448.31;5013789;28;20077;-60
2021/05/07 00:36:42;;;;;;;20.23;14.43;;;;;;;5.75;73.38;99452.59;5013599;28;20061;-59
2021/05/07 00:39:09;;;;;;;19.17;13.93;;;;;;;5.59;73.58;99463.97;5013794;28;20065;-60
2021/05/07 00:41:36;;;;;;;21.98;15.32;;;;;;;5.46;73.97;99467.53;5013174;28;20046;-60
2021/05/07 00:44:03;;;;;;;22.40;15.52;;;;;;;5.40;74.51;99457.72;5014097;28;20068;-60
2021/05/07 00:46:30;;;;;;;25.35;17.02;;;;;;;5.37;74.79;99469.34;5013865;28;20053;-60
2021/05/07 00:48:57;;;;;;;24.58;16.98;;;;;;;5.35;75.18;99460.56;5013876;28;20050;-60
2021/05/07 00:51:25;;;;;;;24.65;16.98;;;;;;;5.38;75.13;99465.47;5014194;28;20050;-60
2021/05/07 00:53:52;;;;;;;25.65;17.60;;;;;;;5.34;75.34;99465.25;5013763;28;20652;-60
2021/05/07 00:56:21;;;;;;;27.25;17.08;;;;;;;5.28;75.13;99472.81;5013266;28;20057;-59
2021/05/07 00:58:48;;;;;;;25.27;17.42;;;;;;;5.29;75.20;99468.94;5013565;28;20072;-59
2021/05/07 01:01:15;;;;;;;27.60;18.15;;;;;;;5.25;75.44;99475.38;5013394;28;20050;-60
2021/05/07 01:03:42;;;;;;;25.48;18.70;;;;;;;5.17;75.55;99460.31;5013618;28;20050;-61
2021/05/07 01:06:09;;;;;;;29.70;20.38;;;;;;;5.08;75.94;99456.59;5013322;28;20057;-60
2021/05/07 01:08:38;;;;;;;29.23;19.92;;;;;;;5.01;75.93;99462.53;5012852;28;20053;-58
2021/05/07 01:11:05;;;;;;;29.40;20.27;;;;;;;4.95;76.19;99462.91;5012575;28;20049;-60
2021/05/07 01:13:32;;;;;;;29.55;20.85;;;;;;;4.84;76.63;99465.84;5012948;28;20166;-59
2021/05/07 01:15:59;;;;;;;30.90;20.27;;;;;;;4.79;76.45;99473.41;5013337;28;20058;-60
2021/05/07 01:18:26;;;;;;;31.48;20.90;;;;;;;4.73;76.71;99463.56;5013236;28;20053;-60
2021/05/07 01:20:56;;;;;;;30.90;21.20;;;;;;;4.67;76.84;99476.63;5010828;28;20137;-59
2021/05/07 01:23:23;;;;;;;;;;;;;;;4.63;76.77;99475.56;4996144;28;20065;-58
2021/05/07 01:25:50;;;;;;;30.85;20.27;;;;;;;4.67;77.02;99476.63;5012428;28;20294;-60
2021/05/07 01:28:17;;;;;;;35.25;21.85;;;;;;;4.77;76.80;99473.69;5013115;28;20050;-60
2021/05/07 01:30:45;;;;;;;29.60;20.73;;;;;;;4.86;77.26;99471.88;5012852;28;20061;-60
2021/05/07 01:33:14;;;;;;;29.10;19.88;;;;;;;4.90;77.39;99474.88;5012966;28;20379;-60
2021/05/07 01:35:42;;;;;;;29.80;19.90;;;;;;;4.98;76.88;99474.19;5012851;28;20061;-60
2021/05/07 01:38:12;;;;;;;30.73;20.30;;;;;;;4.96;76.76;99475.59;5012474;28;20053;-60
2021/05/07 01:40:40;;;;;;;30.85;18.52;;;;;;;5.03;76.46;99476.84;5012746;28;20050;-60
2021/05/07 01:43:08;;;;;;;26.27;18.67;;;;;;;5.13;76.46;99473.09;5012811;28;20067;-60
2021/05/07 01:45:40;;;;;;;24.55;17.52;;;;;;;5.18;76.17;99478.50;5013401;28;20398;-57
2021/05/07 01:48:08;;;;;;;23.67;16.42;;;;;;;5.21;76.14;99488.16;5012562;28;20065;-60
2021/05/07 01:50:37;;;;;;;21.42;15.95;;;;;;;5.31;75.67;99484.38;5012770;28;20049;-60
2021/05/07 01:53:04;;;;;;;22.75;15.80;;;;;;;5.33;75.44;99484.88;5012488;28;20088;-60
2021/05/07 01:55:34;;;;;;;23.00;16.95;;;;;;;5.42;75.62;99499.66;5012736;28;20065;-59
2021/05/07 01:58:01;;;;;;;22.65;17.27;;;;;;;5.53;75.77;99492.00;5012739;28;20049;-60
2021/05/07 02:00:29;;;;;;;22.10;16.58;;;;;;;5.65;75.71;99490.38;5012486;28;20061;-60
2021/05/07 02:02:58;;;;;;;19.73;15.88;;;;;;;5.71;75.50;99491.06;5012646;28;20065;-60
2021/05/07 02:05:27;;;;;;;21.73;14.88;;;;;;;5.74;74.65;99498.75;5012559;28;20057;-60
2021/05/07 02:07:57;;;;;;;19.60;15.38;;;;;;;5.79;74.88;99503.34;5011749;28;20049;-60
2021/05/07 02:10:25;;;;;;;23.90;17.20;;;;;;;5.84;74.68;99501.31;5012918;28;20049;-60
2021/05/07 02:12:55;;;;;;;21.95;16.65;;;;;;;5.89;75.03;99503.16;5012417;28;20053;-60
2021/05/07 02:15:23;;;;;;;25.02;17.95;;;;;;;5.91;74.83;99500.91;5012332;28;20057;-60
2021/05/07 02:17:51;;;;;;;27.48;18.15;;;;;;;5.91;74.61;99500.91;5012306;28;20104;-59
2021/05/07 02:20:21;;;;;;;23.95;17.58;;;;;;;5.80;74.34;99499.47;5014682;28;20065;-60
2021/05/07 02:22:49;;;;;;;27.27;17.95;;;;;;;5.79;74.50;99504.16;4999004;28;20061;-60
2021/05/07 02:25:17;;;;;;;26.15;17.52;;;;;;;5.70;74.41;99512.34;5013881;28;20054;-59
2021/05/07 02:27:46;;;;;;;25.40;18.20;;;;;;;5.64;74.69;99508.06;5016275;28;20061;-59
2021/05/07 02:30:16;;;;;;;29.48;18.88;;;;;;;5.55;74.92;99509.09;5016482;28;20494;-60
2021/05/07 02:32:43;;;;;;;28.25;18.77;;;;;;;5.47;74.74;99516.13;5016339;28;20128;-60
2021/05/07 02:35:10;;;;;;;29.08;19.00;;;;;;;5.34;75.69;99514.16;5016126;28;20061;-60
2021/05/07 02:37:37;;;;;;;30.88;18.92;;;;;;;5.26;75.79;99513.72;5016738;28;20053;-59
2021/05/07 02:40:06;;;;;;;34.05;21.35;;;;;;;5.15;76.42;99516.97;5015362;28;20049;-59
2021/05/07 02:42:33;;;;;;;37.45;22.85;;;;;;;5.09;76.88;99525.31;5014712;28;20057;-59
2021/05/07 02:45:02;;;;;;;40.92;22.80;;;;;;;5.12;76.92;99517.56;5015880;28;20061;-60
2021/05/07 02:47:31;;;;;;;38.92;22.17;;;;;;;5.19;76.88;99527.09;5015938;28;20045;-59
2021/05/07 02:49:58;;;;;;;40.92;24.48;;;;;;;5.31;77.02;99525.78;5016023;28;20057;-60
2021/05/07 02:52:25;;;;;;;41.67;24.33;;;;;;;5.41;77.04;99531.13;5015767;28;20050;-60
2021/05/07 02:54:52;;;;;;;39.38;23.65;;;;;;;5.48;76.91;99531.53;5015642;28;20069;-60
2021/05/07 02:57:19;;;;;;;34.90;22.50;;;;;;;5.53;76.92;99528.72;5015969;28;20088;-60
2021/05/07 02:59:46;;;;;;;38.97;23.75;;;;;;;5.62;76.52;99537.91;5015568;28;20057;-60
2021/05/07 03:02:13;;;;;;;36.85;22.30;;;;;;;5.67;76.30;99535.09;5015694;28;20253;-59
2021/05/07 03:04:40;;;;;;;33.55;22.95;;;;;;;5.77;76.35;99533.25;5015832;28;20065;-60
2021/05/07 03:07:07;;;;;;;31.98;21.20;;;;;;;5.90;75.60;99533.25;5015853;28;20518;-60
2021/05/07 03:09:34;;;;;;;33.25;21.30;;;;;;;5.95;75.65;99540.66;5014559;28;20050;-60
2021/05/07 03:12:01;;;;;;;32.72;22.15;;;;;;;5.99;75.01;99538.13;5015391;28;20050;-60
2021/05/07 03:14:28;;;;;;;31.65;22.83;;;;;;;6.03;75.02;99548.25;5015444;28;20064;-60
2021/05/07 03:16:55;;;;;;;34.75;22.63;;;;;;;6.07;74.96;99546.50;5015545;28;20482;-60
2021/05/07 03:19:21;;;;;;;32.25;21.10;;;;;;;6.07;74.89;99552.03;5015226;28;20430;-60
2021/05/07 03:21:49;;;;;;;37.17;24.50;;;;;;;6.03;74.89;99551.00;5015008;28;20054;-59
2021/05/07 03:24:16;;;;;;;33.33;22.33;;;;;;;6.07;75.02;99553.97;5014675;28;20061;-60
2021/05/07 03:26:43;;;;;;;34.42;23.10;;;;;;;6.06;74.86;99561.44;5015080;28;20491;-60
2021/05/07 03:29:10;;;;;;;35.05;23.83;;;;;;;6.05;74.68;99559.81;5015098;28;20062;-62
2021/05/07 03:31:37;;;;;;;38.60;25.52;;;;;;;6.05;74.92;99565.34;5014420;28;20050;-60
2021/05/07 03:34:04;;;;;;;37.10;25.10;;;;;;;6.12;74.84;99566.88;5015076;28;20064;-60
2021/05/07 03:36:31;;;;;;;37.00;24.25;;;;;;;6.20;74.81;99568.94;5015010;28;20054;-60
2021/05/07 03:38:59;;;;;;;34.13;24.02;;;;;;;6.27;74.92;99574.84;5014339;28;20145;-61
2021/05/07 03:41:26;;;;;;;36.65;24.73;;;;;;;6.30;74.75;99577.03;5015001;28;20156;-60
2021/05/07 03:43:53;;;;;;;35.05;24.50;;;;;;;6.36;74.47;99584.06;5015353;28;20399;-60
2021/05/07 03:46:20;;;;;;;35.33;25.10;;;;;;;6.44;74.62;99586.09;5014879;28;20508;-59
2021/05/07 03:48:47;;;;;;;37.00;26.05;;;;;;;6.48;74.24;99583.56;5015286;28;20058;-61
2021/05/07 03:51:14;;;;;;;41.08;25.05;;;;;;;6.53;74.24;99586.22;5014729;28;20499;-59
2021/05/07 03:53:40;;;;;;;40.67;26.92;;;;;;;6.58;73.81;99597.16;5014581;28;20049;-61
2021/05/07 03:56:08;;;;;;;37.50;25.75;;;;;;;6.61;73.78;99595.72;5014736;28;20057;-61
2021/05/07 03:58:35;;;;;;;38.90;25.73;;;;;;;6.63;74.05;99599.81;5014681;28;20061;-61
2021/05/07 04:01:05;;;;;;;41.45;26.25;;;;;;;6.67;73.51;99600.03;5014805;28;20050;-62
2021/05/07 04:03:32;;;;;;;41.65;26.52;;;;;;;6.73;73.78;99601.56;5014821;28;20056;-61
2021/05/07 04:05:59;;;;;;;38.80;25.90;;;;;;;6.79;73.75;99602.28;5014576;28;20054;-62
2021/05/07 04:08:27;;;;;;;39.72;26.38;;;;;;;6.81;73.19;99605.53;5014250;28;20502;-62
2021/05/07 04:10:59;;;;;;;41.55;27.58;;;;;;;6.81;72.89;99603.59;5014428;28;20411;-61
2021/05/07 04:16:14;;;;;;;41.05;29.15;;;;;;;6.87;73.17;99613.41;5012788;28;20426;-62
2021/05/07 04:18:41;;;;;;;42.78;29.13;;;;;;;6.93;73.02;99613.28;5014336;28;20393;-62
2021/05/07 04:21:08;;;;;;;45.13;29.00;;;;;;;6.98;72.71;99615.97;5014242;28;20077;-59
2021/05/07 04:23:35;;;;;;;41.47;28.52;;;;;;;6.99;72.19;99620.34;5013284;28;20054;-61
2021/05/07 04:26:02;;;;;;;41.83;28.88;;;;;;;7.00;71.76;99625.59;5014021;28;20065;-62
2021/05/07 04:28:30;;;;;;;44.63;31.58;;;;;;;7.05;71.60;99631.00;5014059;28;20050;-61
2021/05/07 04:30:57;;;;;;;38.10;28.75;;;;;;;7.06;72.00;99624.34;5014039;28;20483;-62
2021/05/07 04:33:24;;;;;;;44.28;30.63;;;;;;;7.08;72.02;99626.81;5014313;28;20058;-62
2021/05/07 04:35:51;;;;;;;42.58;30.38;;;;;;;7.04;71.81;99634.09;5013986;28;20085;-59
2021/05/07 04:38:18;;;;;;;41.25;28.70;;;;;;;7.02;71.26;99630.81;5013743;28;20056;-62
2021/05/07 04:40:45;;;;;;;43.58;29.55;;;;;;;7.07;70.91;99623.19;5013572;28;20057;-62
2021/05/07 04:43:12;;;;;;;42.83;29.88;;;;;;;7.10;70.94;99635.63;5012898;28;20065;-61
2021/05/07 04:45:40;;;;;;;41.47;30.13;;;;;;;7.12;70.57;99638.91;5013933;28;20060;-62
2021/05/07 04:48:12;;;;;;;42.90;29.98;;;;;;;7.13;70.58;99643.28;5013418;28;20069;-62
2021/05/07 04:50:39;;;;;;;45.20;30.90;;;;;;;7.09;69.89;99647.81;5013282;28;20050;-62
2021/05/07 04:53:06;;;;;;;50.00;30.98;;;;;;;7.05;70.88;99642.06;5013363;28;20050;-62
2021/05/07 04:55:33;;;;;;;49.47;32.78;;;;;;;7.14;70.43;99652.41;5013518;28;20056;-62
2021/05/07 04:57:59;;;;;;;43.10;30.85;;;;;;;7.16;70.70;99650.16;5013623;28;20054;-61
2021/05/07 05:00:27;;;;;;;48.70;30.80;;;;;;;7.15;70.66;99648.53;5013705;28;20059;-62
2021/05/07 05:02:54;;;;;;;44.83;30.85;;;;;;;7.21;70.36;99666.66;5013401;28;20057;-62
2021/05/07 05:05:21;;;;;;;41.67;29.23;;;;;;;7.19;69.76;99666.16;5013275;28;20072;-62
2021/05/07 05:07:50;;;;;;;42.47;28.70;;;;;;;7.19;70.00;99675.28;5013518;28;20049;-61
2021/05/07 05:10:17;;;;;;;44.58;29.73;;;;;;;7.26;69.57;99674.84;4999607;28;20046;-62
2021/05/07 05:12:44;;;;;;;42.67;29.10;;;;;;;7.37;69.19;99678.19;5012403;28;20062;-62
2021/05/07 05:15:12;;;;;;;41.25;28.08;;;;;;;7.24;69.36;99679.88;5011456;28;20054;-62
2021/05/07 05:17:39;;;;;;;42.28;29.40;;;;;;;7.19;69.88;99682.78;5011410;28;20297;-62
2021/05/07 05:20:08;;;;;;;41.60;27.67;;;;;;;7.30;69.16;99684.19;5013473;28;20061;-62
2021/05/07 05:22:36;;;;;;;38.05;26.25;;;;;;;7.43;68.93;99682.50;5013208;28;20498;-62
2021/05/07 05:25:05;;;;;;;44.45;29.05;;;;;;;7.46;69.00;99682.69;5012661;28;20049;-62
2021/05/07 05:27:32;;;;;;;42.17;28.60;;;;;;;7.51;69.08;99684.53;5011467;28;20065;-62
2021/05/07 05:30:00;;;;;;;40.85;28.52;;;;;;;7.75;68.53;99689.78;5009259;28;20060;-61
2021/05/07 05:32:26;;;;;;;40.00;26.27;;;;;;;8.12;67.47;99693.28;5009481;28;20411;-58
2021/05/07 05:34:53;;;;;;;38.55;25.65;;;;;;;8.25;66.71;99695.16;5006261;28;20499;-62
2021/05/07 05:37:22;;;;;;;37.35;25.60;;;;;;;8.47;67.13;99694.31;5013137;28;20397;-61
2021/05/07 05:39:49;;;;;;;40.00;26.38;;;;;;;8.60;65.37;99691.75;5011497;28;20057;-62
2021/05/07 05:42:16;;;;;;;37.05;24.98;;;;;;;8.54;64.97;99697.44;5010124;28;20069;-61
2021/05/07 05:44:43;;;;;;;34.55;23.88;;;;;;;8.53;65.15;99701.34;5011614;28;20061;-62
2021/05/07 05:47:10;;;;;;;34.38;23.88;;;;;;;8.63;64.90;99713.31;5011244;28;20073;-62
2021/05/07 05:49:36;;;;;;;34.75;23.58;;;;;;;8.65;64.75;99713.81;5012059;28;20080;-62
2021/05/07 05:52:04;;;;;;;34.00;24.00;;;;;;;8.58;65.15;99716.25;5010150;28;20042;-62
2021/05/07 05:54:32;;;;;;;34.90;24.85;;;;;;;8.55;65.01;99720.47;5011499;28;20463;-62
2021/05/07 05:56:59;;;;;;;33.65;23.88;;;;;;;8.57;65.41;99720.13;5012446;28;20046;-62
2021/05/07 05:59:26;;;;;;;35.97;23.98;;;;;;;8.61;65.03;99721.97;5012527;28;20049;-62
2021/05/07 06:01:53;;;;;;;34.00;23.98;;;;;;;8.65;65.41;99717.41;5011758;28;20046;-62
2021/05/07 06:04:20;;;;;;;37.28;23.67;;;;;;;8.66;64.69;99727.38;5012517;28;20061;-62
2021/05/07 06:06:48;;;;;;;35.55;22.90;;;;;;;8.57;64.62;99739.56;5012371;28;20061;-62
2021/05/07 06:09:15;;;;;;;37.72;24.38;;;;;;;8.62;65.15;99745.00;5011303;28;20053;-62
2021/05/07 06:11:42;;;;;;;34.83;23.17;;;;;;;8.77;64.14;99747.34;5011955;28;20045;-62
2021/05/07 06:14:09;;;;;;;34.75;23.13;;;;;;;8.94;63.52;99744.66;5011456;28;20507;-63
2021/05/07 06:16:36;;;;;;;29.60;20.75;;;;;;;9.01;63.10;99746.97;5011196;28;20050;-63
2021/05/07 06:19:05;;;;;;;27.98;20.90;;;;;;;9.36;62.13;99749.81;5012190;28;20080;-62
2021/05/07 06:21:32;;;;;;;30.43;19.67;;;;;;;9.31;62.14;99742.44;5011467;28;20052;-62
2021/05/07 06:23:59;;;;;;;29.98;20.05;;;;;;;9.26;62.13;99742.63;5010276;28;20427;-62
2021/05/07 06:26:26;;;;;;;30.67;21.35;;;;;;;9.19;62.81;99745.03;5012302;28;20057;-62
2021/05/07 06:28:56;;;;;;;26.77;19.60;;;;;;;9.24;63.02;99744.91;5010005;28;20418;-61
2021/05/07 06:31:22;;;;;;;;;;;;;;;9.31;62.48;99748.00;5011790;28;20061;-61
2021/05/07 06:33:49;;;;;;;22.35;16.35;;;;;;;9.44;61.97;99760.13;5009511;28;19922;-61
2021/05/07 06:36:17;;;;;;;21.63;15.10;;;;;;;9.59;61.49;99756.06;5010974;28;20053;-61
2021/05/07 06:38:45;;;;;;;19.33;13.82;;;;;;;9.64;61.17;99758.69;5009689;28;20062;-61
2021/05/07 06:41:12;;;;;;;18.88;13.13;;;;;;;9.69;60.13;99755.75;5008877;28;20057;-57
2021/05/07 06:43:39;;;;;;;17.95;13.88;;;;;;;9.93;60.36;99763.63;5005058;28;20060;-58
2021/05/07 06:46:09;;;;;;;17.02;13.27;;;;;;;10.15;59.41;99756.22;5004145;28;20055;-58
2021/05/07 06:48:36;;;;;;;18.13;13.05;;;;;;;10.30;58.41;99755.75;4998715;28;20058;-59
2021/05/07 06:51:03;;;;;;;15.90;12.02;;;;;;;10.44;57.27;99758.34;5003483;28;20057;-59
2021/05/07 06:53:30;;;;;;;19.63;13.00;;;;;;;10.55;57.10;99765.19;5010055;28;20058;-58
2021/05/07 06:55:57;;;;;;;16.65;12.85;;;;;;;10.61;57.51;99759.44;5009149;28;20058;-59
2021/05/07 06:58:24;;;;;;;16.95;13.48;;;;;;;10.63;57.98;99774.66;5010821;28;20064;-59
2021/05/07 07:00:51;;;;;;;15.30;12.30;;;;;;;10.70;57.41;99774.16;5001150;28;20414;-59
2021/05/07 07:03:21;;;;;;;13.45;11.35;;;;;;;10.77;56.72;99772.50;5010223;28;20403;-59
2021/05/07 07:05:48;;;;;;;15.13;11.95;;;;;;;10.86;56.10;99768.88;4997739;28;20497;-59
2021/05/07 07:08:15;;;;;;;16.75;12.05;;;;;;;10.93;56.15;99785.88;5014397;28;20065;-58
2021/05/07 07:10:42;;;;;;;15.52;12.43;;;;;;;10.97;56.22;99784.88;5012988;28;20060;-59
2021/05/07 07:13:09;;;;;;;15.93;11.65;;;;;;;11.08;56.33;99790.88;5012193;28;20057;-58
2021/05/07 07:15:35;;;;;;;13.10;9.90;;;;;;;10.97;55.73;99793.22;5012295;28;20054;-57
2021/05/07 07:18:03;;;;;;;7.20;5.35;;;;;;;10.64;54.21;99811.69;5014201;28;20137;-58
2021/05/07 07:20:30;;;;;;;9.13;5.43;;;;;;;10.16;55.36;99814.34;5012155;28;20061;-58
2021/05/07 07:22:58;;;;;;;6.85;4.47;;;;;;;9.90;56.08;99822.66;5013134;28;20058;-58
2021/05/07 07:25:25;;;;;;;7.13;4.10;;;;;;;9.65;55.37;99823.47;5012787;28;20069;-58
2021/05/07 07:27:51;;;;;;;5.97;3.90;;;;;;;9.44;56.67;99828.81;5013073;28;20054;-57
2021/05/07 07:30:19;;;;;;;8.23;4.28;;;;;;;9.24;57.47;99822.69;5012773;28;20062;-58
2021/05/07 07:32:46;;;;;;;7.40;4.47;;;;;;;9.07;58.37;99839.28;5013887;28;20480;-58
2021/05/07 07:35:16;;;;;;;6.40;3.78;;;;;;;8.86;59.12;99841.78;5011198;28;20050;-58
2021/05/07 07:37:43;;;;;;;5.43;3.70;;;;;;;8.79;59.95;99850.59;5012603;28;20053;-58
2021/05/07 07:40:11;;;;;;;4.85;3.53;;;;;;;8.69;59.36;99851.69;5013031;28;20050;-58
2021/05/07 07:42:40;;;;;;;4.95;3.20;;;;;;;8.67;59.42;99856.75;5011784;28;20607;-57
2021/05/07 07:45:08;;;;;;;4.70;3.47;;;;;;;8.70;58.78;99866.38;5011525;28;20057;-57
2021/05/07 07:47:35;;;;;;;5.10;3.58;;;;;;;8.69;59.00;99861.94;5013405;28;20053;-57
2021/05/07 07:50:04;;;;;;;6.30;3.58;;;;;;;8.68;59.17;99863.91;5010901;28;20054;-57
2021/05/07 07:52:32;;;;;;;5.43;3.72;;;;;;;8.79;59.41;99872.81;5012121;28;20447;-58
2021/05/07 07:55:00;;;;;;;4.88;3.80;;;;;;;8.92;59.02;99877.47;5007699;28;20054;-56
2021/05/07 07:57:29;;;;;;;8.75;4.25;;;;;;;9.01;59.42;99876.66;5013580;28;20514;-58
2021/05/07 07:59:56;;;;;;;5.53;3.75;;;;;;;9.14;58.86;99884.13;5012047;28;20058;-56
2021/05/07 08:02:25;;;;;;;8.05;4.43;;;;;;;9.21;59.04;99894.75;5013463;28;20066;-58
2021/05/07 08:04:52;;;;;;;6.67;3.93;;;;;;;9.13;59.06;99893.56;5011726;28;20058;-58
2021/05/07 08:07:19;;;;;;;8.93;3.88;;;;;;;9.12;59.77;99906.66;5012300;28;20053;-55
2021/05/07 08:09:46;;;;;;;7.20;3.85;;;;;;;9.10;59.57;99908.13;5011122;28;20400;-59
2021/05/07 08:12:14;;;;;;;5.13;3.42;;;;;;;9.10;58.48;99914.47;5005890;28;20058;-59
2021/05/07 08:14:41;;;;;;;5.72;3.70;;;;;;;9.07;58.87;99919.84;5003254;28;20072;-55
2021/05/07 08:17:09;;;;;;;6.50;3.78;;;;;;;8.99;59.37;99926.16;5010046;28;20419;-57
2021/05/07 08:19:36;;;;;;;7.00;4.20;;;;;;;8.94;59.31;99941.84;5011284;28;20045;-57
2021/05/07 08:22:04;;;;;;;5.28;3.42;;;;;;;8.87;58.28;99938.69;5011608;28;20046;-56
2021/05/07 08:24:31;;;;;;;5.68;3.33;;;;;;;8.84;59.00;99944.03;5007873;28;20054;-57
2021/05/07 08:26:59;;;;;;;10.35;4.65;;;;;;;8.82;59.39;99951.88;5011031;28;20092;-55
2021/05/07 08:29:27;;;;;;;4.55;3.35;;;;;;;8.80;59.29;99959.69;5012674;28;20058;-57
2021/05/07 08:31:54;;;;;;;4.68;3.10;;;;;;;8.82;59.15;99961.03;5011821;28;20065;-58
2021/05/07 08:34:21;;;;;;;8.27;3.38;;;;;;;8.94;59.61;99966.00;5006696;28;20057;-57
2021/05/07 08:36:48;;;;;;;6.60;3.13;;;;;;;9.08;58.57;99965.97;5013078;28;20411;-57
2021/05/07 08:39:15;;;;;;;6.30;3.33;;;;;;;9.26;59.75;99970.50;5008392;28;20514;-56
2021/05/07 08:41:44;;;;;;;4.68;2.90;;;;;;;9.60;57.79;99971.81;5011709;28;20073;-55
2021/05/07 08:44:11;;;;;;;4.47;2.40;;;;;;;9.89;55.35;99973.22;5010806;28;20057;-57
2021/05/07 08:46:41;;;;;;;4.65;2.97;;;;;;;10.55;53.46;99967.66;5009084;28;20069;-57
2021/05/07 08:49:08;;;;;;;6.15;3.88;;;;;;;11.94;50.80;99974.94;5004310;28;20396;-57
2021/05/07 08:51:37;;;;;;;5.47;3.55;;;;;;;13.94;45.08;99975.97;4999764;28;20057;-56
2021/05/07 08:54:08;;;;;;;3.95;2.90;;;;;;;15.50;40.26;99977.44;5009836;28;20057;-58
2021/05/07 08:56:35;;;;;;;3.15;2.50;;;;;;;17.84;36.13;99967.38;5012526;28;20054;-56
2021/05/07 08:59:02;;;;;;;3.88;2.58;;;;;;;20.42;32.84;99971.72;5011589;28;20060;-56
2021/05/07 09:01:51;;;;;;;2.88;2.25;;;;;;;22.77;28.83;99978.34;5010732;28;20050;-53
2021/05/07 09:04:20;;;;;;;2.23;2.03;;;;;;;24.65;23.27;99973.09;5010550;28;20510;-58
2021/05/07 09:06:50;;;;;;;2.75;2.45;;;;;;;26.18;21.30;99969.41;5012561;28;20053;-59
2021/05/07 09:09:23;;;;;;;3.63;2.60;;;;;;;26.87;20.91;99971.84;5011443;28;20061;-53
2021/05/07 09:11:50;;;;;;;4.25;2.35;;;;;;;28.52;18.49;99979.53;5009127;28;20499;-55
2021/05/07 09:14:17;;;;;;;3.92;3.10;;;;;;;29.69;17.83;99980.25;5009605;28;20049;-59
2021/05/07 09:16:56;;;;;;;3.08;2.55;;;;;;;30.09;16.68;99988.44;5010255;28;20513;-59
2021/05/07 09:19:24;;;;;;;3.47;2.40;;;;;;;30.92;15.97;99976.97;5001472;28;20487;-59
2021/05/07 09:21:53;;;;;;;4.20;2.77;;;;;;;32.07;15.26;99981.97;4993719;28;20054;-59
2021/05/07 09:24:20;;;;;;;3.25;2.05;;;;;;;32.21;15.15;99991.28;5009728;28;20054;-59
2021/05/07 09:26:48;;;;;;;3.75;2.60;;;;;;;33.27;14.80;100001.50;5012105;28;20049;-59
2021/05/07 09:29:22;;;;;;;4.57;2.50;;;;;;;33.25;14.04;100001.19;5009465;28;20065;-59
2021/05/07 09:31:51;;;;;;;2.67;2.25;;;;;;;32.95;14.53;99992.19;5010200;28;20061;-60
2021/05/07 09:34:20;;;;;;;2.83;1.70;;;;;;;33.78;13.42;100000.72;5012821;28;20482;-60
2021/05/07 09:36:47;;;;;;;;;;;;;;;30.69;15.89;100019.22;5009348;28;20062;-58
2021/05/07 09:39:15;;;;;;;3.25;1.90;;;;;;;28.81;17.86;100027.47;5009807;28;19976;-59
2021/05/07 09:41:44;;;;;;;2.25;1.83;;;;;;;27.05;19.98;100035.19;5012665;28;20057;-59
2021/05/07 09:44:25;;;;;;;3.95;1.75;;;;;;;25.44;21.29;100040.59;5012302;28;20054;-59
2021/05/07 09:46:55;;;;;;;3.05;1.65;;;;;;;28.15;19.47;100036.09;5009779;28;20050;-59
2021/05/07 09:49:25;;;;;;;2.15;1.30;;;;;;;26.28;19.23;100045.50;5012200;28;20472;-59
2021/05/07 09:51:52;;;;;;;2.47;2.00;;;;;;;28.74;17.31;100045.69;5033518;23;20053;-59
2021/05/07 09:54:19;;;;;;;2.60;1.15;;;;;;;29.52;18.41;100054.16;5050732;28;20052;-57
2021/05/07 09:56:47;;;;;;;3.00;1.40;;;;;;;27.74;18.83;100063.22;5051754;28;20049;-58
2021/05/07 09:59:15;;;;;;;2.95;1.42;;;;;;;26.27;19.91;100065.91;5052257;28;20056;-59
2021/05/07 10:01:44;;;;;;;2.60;2.00;;;;;;;25.83;19.88;100076.31;5048910;28;20558;-58
2021/05/07 10:04:11;;;;;;;4.18;1.98;;;;;;;28.91;16.76;100075.13;5045882;28;20053;-54
2021/05/07 10:06:40;;;;;;;2.17;1.90;;;;;;;31.00;14.52;100072.44;5051320;28;20071;-59
2021/05/07 10:09:07;;;;;;;2.05;1.60;;;;;;;32.33;12.66;100063.22;5049437;28;20057;-59
2021/05/07 10:11:37;;;;;;;2.38;2.03;;;;;;;31.57;14.52;100081.06;5044622;28;20049;-59
2021/05/07 10:14:08;;;;;;;2.47;1.30;;;;;;;29.74;15.53;100085.13;5056318;23;20053;-59
2021/05/07 10:16:35;;;;;;;1.75;1.30;;;;;;;27.87;16.36;100095.63;5047301;28;20703;-59
2021/05/07 10:19:04;;;;;;;3.42;1.50;;;;;;;25.93;18.98;100103.94;5048974;28;20409;-59
2021/05/07 10:21:37;;;;;;;3.15;1.60;;;;;;;24.60;20.47;100098.88;5045668;28;20053;-59
2021/05/07 10:24:06;;;;;;;3.92;2.60;;;;;;;26.47;19.03;100100.28;5050535;23;20409;-58
2021/05/07 10:26:35;;;;;;;3.63;2.60;;;;;;;28.92;15.79;100093.94;5009538;28;20053;-58
2021/05/07 10:29:16;;;;;;;2.22;1.50;;;;;;;30.09;15.38;100096.75;4999511;28;20064;-59
2021/05/07 10:31:48;;;;;;;3.17;1.50;;;;;;;28.47;15.01;100104.03;5008730;28;20072;-58
2021/05/07 10:34:15;;;;;;;2.35;1.48;;;;;;;26.83;17.16;100111.94;5013666;28;20049;-59
2021/05/07 10:36:44;;;;;;;3.03;1.42;;;;;;;25.28;19.14;100106.75;5009741;28;20081;-60
2021/05/07 10:39:19;;;;;;;3.13;1.80;;;;;;;23.88;20.06;100111.53;5008850;28;20056;-60
2021/05/07 10:41:50;;;;;;;5.15;1.83;;;;;;;22.82;22.33;100116.25;5009729;28;20483;-58
2021/05/07 10:44:17;;;;;;;2.15;1.30;;;;;;;22.20;22.18;100123.91;5014510;28;20495;-60
2021/05/07 10:46:58;;;;;;;4.35;1.55;;;;;;;21.56;22.25;100132.22;5014291;28;20041;-60
2021/05/07 10:49:31;;;;;;;2.92;1.52;;;;;;;21.04;23.70;100138.78;5020508;28;20058;-59
2021/05/07 10:51:58;;;;;;;3.20;1.70;;;;;;;20.55;24.53;100130.66;5015187;28;20053;-60
2021/05/07 10:54:36;;;;;;;2.55;1.50;;;;;;;20.16;24.99;100140.41;5015184;28;20061;-60
2021/05/07 10:57:03;;;;;;;2.78;1.52;;;;;;;19.79;25.54;100141.19;5015304;28;20058;-59
2021/05/07 10:59:30;;;;;;;2.40;1.50;;;;;;;19.32;26.41;100153.88;5019659;28;20050;-59
2021/05/07 11:01:58;;;;;;;2.63;1.90;;;;;;;18.73;27.40;100153.38;5014261;28;20399;-60
2021/05/07 11:04:25;;;;;;;2.45;1.60;;;;;;;18.28;28.27;100152.16;5014265;28;20410;-60
2021/05/07 11:07:03;;;;;;;2.35;1.83;;;;;;;18.03;29.04;100163.78;5014389;28;20084;-60
2021/05/07 11:09:30;;;;;;;2.38;1.60;;;;;;;17.49;29.48;100169.47;5013915;28;20046;-60
2021/05/07 11:12:03;;;;;;;2.80;1.60;;;;;;;16.94;29.87;100178.66;5014790;28;20054;-58
2021/05/07 11:14:34;;;;;;;4.38;1.70;;;;;;;16.35;30.83;100182.38;5015192;28;20054;-60
2021/05/07 11:17:03;;;;;;;3.45;1.92;;;;;;;16.00;31.26;100186.66;5013300;28;20054;-60
2021/05/07 11:19:32;;;;;;;2.17;1.77;;;;;;;15.68;32.46;100191.28;5011043;28;20376;-57
2021/05/07 11:22:01;;;;;;;3.10;1.70;;;;;;;15.56;32.30;100194.13;5014507;28;20060;-59
2021/05/07 11:24:29;;;;;;;2.53;1.77;;;;;;;15.60;33.06;100195.91;5023855;28;20056;-60
2021/05/07 11:26:57;;;;;;;2.65;1.60;;;;;;;15.76;32.75;100204.41;5035350;28;20472;-59
2021/05/07 11:29:29;;;;;;;2.90;2.00;;;;;;;16.28;31.73;100208.28;5026181;28;20066;-59
2021/05/07 11:31:56;;;;;;;4.15;2.40;;;;;;;16.23;31.85;100211.34;5011730;28;20070;-58
2021/05/07 11:34:27;;;;;;;2.80;2.10;;;;;;;16.11;32.30;100214.25;5014755;28;20514;-58
2021/05/07 11:37:00;;;;;;;3.40;2.28;;;;;;;15.94;32.32;100207.75;5014015;28;20522;-58